createdAt,value
2023-03-22T00:02:16.686Z,78.15
2023-03-22T00:04:44.576Z,79.15
2023-03-22T00:07:12.439Z,78.75
2023-03-22T00:09:41.054Z,78.64
2023-03-22T00:12:09.294Z,78.31
2023-03-22T00:14:37.068Z,78.45
2023-03-22T00:17:05.029Z,78.37
2023-03-22T00:19:34.294Z,78.26
2023-03-22T00:22:03.738Z,78.13
2023-03-22T00:24:31.999Z,78.26
2023-03-22T00:27:01.651Z,78.30
2023-03-22T00:29:29.574Z,78.17
2023-03-22T00:31:57.440Z,78.15
2023-03-22T00:34:26.844Z,78.15
2023-03-22T00:36:56.449Z,78.65
2023-03-22T00:39:24.429Z,78.52
2023-03-22T00:41:52.291Z,78.20
2023-03-22T00:44:20.255Z,78.10
2023-03-22T00:46:48.037Z,78.08
2023-03-22T00:49:15.884Z,78.64
2023-03-22T00:51:43.680Z,78.81
2023-03-22T00:54:12.050Z,79.10
2023-03-22T00:56:39.888Z,79.11
2023-03-22T00:59:07.853Z,79.02
2023-03-22T01:01:35.724Z,78.91
2023-03-22T01:04:05.269Z,78.44
2023-03-22T01:06:34.728Z,78.70
2023-03-22T01:09:02.594Z,79.22
2023-03-22T01:11:30.663Z,78.82
2023-03-22T01:13:59.708Z,78.70
2023-03-22T01:16:27.575Z,79.16
2023-03-22T01:18:55.438Z,78.74
2023-03-22T01:21:23.191Z,78.57
2023-03-22T01:23:50.942Z,78.54
2023-03-22T01:26:18.774Z,78.88
2023-03-22T01:28:46.642Z,78.99
2023-03-22T01:31:14.410Z,78.82
2023-03-22T01:33:42.375Z,78.87
2023-03-22T01:36:11.111Z,78.74
2023-03-22T01:38:38.863Z,78.67
2023-03-22T01:41:07.525Z,78.67
2023-03-22T01:43:35.474Z,78.92
2023-03-22T01:46:03.674Z,79.17
2023-03-22T01:48:36.038Z,79.25
2023-03-22T01:51:19.044Z,78.86
2023-03-22T01:53:50.600Z,78.89
2023-03-22T01:56:25.944Z,78.97
2023-03-22T01:58:55.116Z,78.81
2023-03-22T02:01:24.583Z,79.20
2023-03-22T02:04:20.253Z,79.54
2023-03-22T02:06:50.254Z,79.21
2023-03-22T02:09:18.375Z,79.20
2023-03-22T02:12:26.708Z,79.24
2023-03-22T02:15:10.932Z,79.38
2023-03-22T02:17:51.595Z,79.28
2023-03-22T02:20:38.726Z,79.39
2023-03-22T02:23:44.368Z,79.30
2023-03-22T02:26:27.209Z,79.12
2023-03-22T02:29:02.700Z,79.24
2023-03-22T02:31:42.552Z,79.47
2023-03-22T02:34:18.301Z,79.34
2023-03-22T02:37:04.493Z,79.23
2023-03-22T02:40:05.735Z,79.44
2023-03-22T02:42:42.534Z,79.77
2023-03-22T02:45:10.481Z,79.49
2023-03-22T02:47:54.706Z,79.63
2023-03-22T02:50:46.575Z,79.77
2023-03-22T02:53:46.576Z,79.49
2023-03-22T02:56:30.420Z,79.57
2023-03-22T02:59:02.609Z,79.78
2023-03-22T03:01:42.402Z,79.27
2023-03-22T03:04:16.986Z,79.30
2023-03-22T03:06:48.320Z,79.76
2023-03-22T03:09:19.467Z,79.22
2023-03-22T03:11:50.421Z,79.48
2023-03-22T03:14:30.759Z,79.61
2023-03-22T03:17:17.160Z,80.05
2023-03-22T03:20:22.196Z,80.04
2023-03-22T03:23:21.844Z,79.72
2023-03-22T03:26:04.530Z,79.49
2023-03-22T03:28:46.755Z,79.54
2023-03-22T03:31:27.144Z,79.33
2023-03-22T03:34:16.064Z,79.47
2023-03-22T03:36:52.919Z,79.59
2023-03-22T03:39:24.316Z,79.28
2023-03-22T03:41:55.533Z,79.22
2023-03-22T03:44:24.704Z,79.78
2023-03-22T03:46:54.618Z,79.46
2023-03-22T03:49:23.847Z,79.95
2023-03-22T03:51:56.393Z,79.97
2023-03-22T03:54:24.258Z,79.74
2023-03-22T03:56:52.327Z,80.01
2023-03-22T03:59:21.228Z,79.78
2023-03-22T04:01:52.826Z,79.91
2023-03-22T04:04:28.057Z,79.72
2023-03-22T04:07:01.037Z,80.05
2023-03-22T04:09:31.862Z,79.88
2023-03-22T04:11:59.924Z,80.08
2023-03-22T04:14:29.026Z,79.83
2023-03-22T04:16:56.877Z,80.02
2023-03-22T04:19:24.754Z,79.70
2023-03-22T04:21:53.318Z,79.85
2023-03-22T04:24:22.412Z,79.72
2023-03-22T04:26:50.892Z,79.72
2023-03-22T04:29:19.163Z,80.02
2023-03-22T04:31:46.931Z,80.13
2023-03-22T04:34:14.794Z,80.19
2023-03-22T04:36:42.654Z,80.35
2023-03-22T04:39:12.162Z,80.37
2023-03-22T04:41:40.138Z,80.32
2023-03-22T04:44:08.346Z,80.45
2023-03-22T04:46:37.442Z,80.30
2023-03-22T04:49:06.016Z,79.92
2023-03-22T04:51:33.844Z,80.54
2023-03-22T04:54:01.858Z,80.58
2023-03-22T04:56:29.677Z,80.21
2023-03-22T04:58:57.549Z,80.83
2023-03-22T05:01:25.377Z,80.67
2023-03-22T05:03:53.278Z,80.75
2023-03-22T05:06:21.240Z,80.43
2023-03-22T05:08:49.113Z,80.71
2023-03-22T05:11:19.540Z,80.94
2023-03-22T05:13:47.502Z,80.59
2023-03-22T05:16:15.742Z,80.78
2023-03-22T05:18:45.703Z,80.84
2023-03-22T05:21:15.704Z,81.12
2023-03-22T05:23:44.807Z,80.82
2023-03-22T05:26:16.224Z,80.87
2023-03-22T05:28:44.529Z,81.07
2023-03-22T05:31:15.189Z,81.00
2023-03-22T05:33:44.190Z,81.04
2023-03-22T05:36:12.072Z,80.98
2023-03-22T05:38:39.975Z,80.77
2023-03-22T05:41:07.876Z,80.73
2023-03-22T05:43:35.638Z,80.58
2023-03-22T05:46:08.617Z,80.62
2023-03-22T05:48:37.728Z,80.93
2023-03-22T05:51:09.941Z,81.60
2023-03-22T05:53:37.690Z,81.62
2023-03-22T05:56:10.046Z,81.69
2023-03-22T05:58:38.060Z,81.47
2023-03-22T06:01:08.074Z,81.21
2023-03-22T06:03:36.144Z,81.69
2023-03-22T06:06:06.969Z,81.53
2023-03-22T06:08:34.956Z,81.94
2023-03-22T06:11:02.757Z,81.90
2023-03-22T06:13:30.862Z,81.41
2023-03-22T06:16:03.835Z,81.95
2023-03-22T06:18:31.948Z,82.07
2023-03-22T06:21:00.441Z,82.14
2023-03-22T06:23:28.704Z,81.88
2023-03-22T06:25:56.483Z,82.13
2023-03-22T06:28:26.792Z,81.91
2023-03-22T06:30:54.724Z,82.19
2023-03-22T06:33:22.727Z,82.10
2023-03-22T06:35:50.576Z,82.18
2023-03-22T06:38:18.447Z,82.05
2023-03-22T06:40:46.415Z,82.29
2023-03-22T06:43:14.142Z,82.01
2023-03-22T06:45:42.009Z,82.37
2023-03-22T06:48:09.952Z,82.23
2023-03-22T06:50:40.381Z,82.07
2023-03-22T06:53:09.532Z,81.83
2023-03-22T06:55:37.512Z,81.71
2023-03-22T06:58:05.327Z,81.93
2023-03-22T07:00:34.510Z,81.88
2023-03-22T07:03:02.359Z,81.76
2023-03-22T07:05:30.776Z,81.68
2023-03-22T07:07:58.628Z,81.75
2023-03-22T07:10:26.472Z,81.80
2023-03-22T07:12:54.550Z,81.71
2023-03-22T07:15:25.008Z,81.83
2023-03-22T07:17:52.828Z,81.65
2023-03-22T07:20:20.738Z,81.49
2023-03-22T07:22:51.145Z,81.71
2023-03-22T07:25:19.398Z,81.27
2023-03-22T07:27:47.470Z,81.50
2023-03-22T07:30:15.444Z,80.91
2023-03-22T07:32:43.307Z,80.42
2023-03-22T07:35:11.273Z,80.24
2023-03-22T07:37:39.096Z,80.26
2023-03-22T07:40:08.289Z,79.91
2023-03-22T07:42:36.111Z,79.50
2023-03-22T07:45:05.142Z,79.30
2023-03-22T07:47:40.729Z,78.91
2023-03-22T07:50:12.499Z,78.71
2023-03-22T07:52:41.742Z,78.63
2023-03-22T07:55:11.258Z,78.84
2023-03-22T07:57:39.413Z,78.65
2023-03-22T08:00:10.468Z,78.61
2023-03-22T08:02:39.035Z,78.41
2023-03-22T08:05:07.686Z,78.51
2023-03-22T08:07:35.562Z,78.43
2023-03-22T08:10:04.611Z,78.57
2023-03-22T08:12:32.818Z,78.48
2023-03-22T08:15:00.679Z,77.92
2023-03-22T08:17:30.037Z,78.18
2023-03-22T08:19:57.812Z,78.13
2023-03-22T08:22:26.122Z,77.35
2023-03-22T08:24:53.881Z,77.27
2023-03-22T08:27:22.064Z,77.22
2023-03-22T08:29:49.929Z,76.89
2023-03-22T08:32:18.294Z,76.92
2023-03-22T08:34:46.778Z,76.41
2023-03-22T08:37:14.759Z,76.28
2023-03-22T08:39:44.333Z,76.19
2023-03-22T08:42:12.438Z,76.44
2023-03-22T08:44:40.247Z,76.37
2023-03-22T08:47:08.055Z,76.24
2023-03-22T08:49:36.118Z,76.84
2023-03-22T08:52:04.494Z,76.09
2023-03-22T08:54:36.571Z,75.95
2023-03-22T08:57:05.001Z,75.87
2023-03-22T08:59:32.803Z,75.28
2023-03-22T09:02:01.135Z,75.31
2023-03-22T09:04:28.953Z,74.98
2023-03-22T09:06:57.009Z,75.10
2023-03-22T09:09:24.879Z,75.29
2023-03-22T09:11:52.781Z,75.69
2023-03-22T09:14:21.017Z,74.41
2023-03-22T09:16:48.887Z,74.79
2023-03-22T09:19:16.653Z,75.13
2023-03-22T09:21:44.725Z,74.53
2023-03-22T09:24:12.521Z,74.85
2023-03-22T09:26:40.470Z,74.57
2023-03-22T09:29:08.312Z,74.92
2023-03-22T09:31:36.218Z,74.92
2023-03-22T09:34:04.151Z,74.95
2023-03-22T09:36:34.878Z,74.75
2023-03-22T09:39:06.735Z,74.58
2023-03-22T09:41:48.837Z,74.27
2023-03-22T09:44:41.396Z,73.99
2023-03-22T09:47:17.949Z,74.35
2023-03-22T09:49:53.647Z,73.84
2023-03-22T09:52:22.171Z,73.44
2023-03-22T09:54:52.685Z,73.32
2023-03-22T09:57:39.106Z,73.55
2023-03-22T10:00:21.111Z,73.14
2023-03-22T10:03:09.852Z,73.28
2023-03-22T10:05:57.476Z,73.31
2023-03-22T10:09:03.074Z,73.19
2023-03-22T10:11:42.811Z,72.88
2023-03-22T10:14:21.178Z,72.53
2023-03-22T10:16:50.514Z,72.34
2023-03-22T10:19:33.316Z,72.13
2023-03-22T10:22:04.669Z,71.47
2023-03-22T10:24:35.754Z,71.84
2023-03-22T10:27:05.107Z,71.22
2023-03-22T10:29:38.754Z,70.66
2023-03-22T10:32:25.314Z,70.95
2023-03-22T10:34:53.271Z,70.37
2023-03-22T10:37:25.742Z,70.29
2023-03-22T10:39:56.177Z,70.42
2023-03-22T10:42:28.032Z,70.58
2023-03-22T10:45:04.236Z,70.34
2023-03-22T10:47:41.464Z,70.56
2023-03-22T10:50:17.791Z,70.43
2023-03-22T10:53:08.340Z,70.49
2023-03-22T10:55:42.536Z,70.17
2023-03-22T10:58:13.394Z,70.29
2023-03-22T11:00:57.159Z,70.45
2023-03-22T11:03:43.008Z,69.93
2023-03-22T11:06:19.835Z,70.10
2023-03-22T11:08:50.625Z,70.09
2023-03-22T11:11:36.676Z,69.83
2023-03-22T11:14:07.389Z,70.34
2023-03-22T11:17:08.283Z,69.83
2023-03-22T11:19:52.118Z,69.72
2023-03-22T11:22:47.149Z,69.91
2023-03-22T11:25:17.761Z,68.79
2023-03-22T11:28:05.654Z,68.58
2023-03-22T11:30:34.344Z,68.08
2023-03-22T11:33:21.108Z,68.17
2023-03-22T11:35:56.766Z,67.68
2023-03-22T11:38:24.665Z,67.80
2023-03-22T11:41:02.826Z,67.78
2023-03-22T11:43:44.258Z,67.72
2023-03-22T11:46:12.667Z,67.71
2023-03-22T11:48:42.352Z,66.71
2023-03-22T11:51:14.301Z,67.59
2023-03-22T11:53:45.572Z,66.72
2023-03-22T11:56:26.115Z,67.03
2023-03-22T11:59:00.267Z,66.39
2023-03-22T12:01:36.531Z,66.67
2023-03-22T12:04:09.345Z,65.79
2023-03-22T12:06:40.983Z,65.03
2023-03-22T12:09:27.111Z,65.66
2023-03-22T12:12:01.816Z,65.62
2023-03-22T12:14:35.005Z,65.93
2023-03-22T12:17:06.755Z,65.91
2023-03-22T12:20:12.382Z,65.41
2023-03-22T12:22:51.244Z,65.38
2023-03-22T12:25:30.595Z,65.58
2023-03-22T12:28:03.747Z,65.89
2023-03-22T12:30:37.696Z,66.09
2023-03-22T12:33:17.997Z,66.02
2023-03-22T12:35:47.526Z,65.97
2023-03-22T12:38:48.602Z,65.68
2023-03-22T12:41:23.556Z,64.95
2023-03-22T12:43:51.497Z,64.60
2023-03-22T12:46:24.103Z,64.98
2023-03-22T12:49:15.712Z,64.43
2023-03-22T12:51:44.226Z,64.29
2023-03-22T12:54:15.430Z,64.69
2023-03-22T12:56:46.711Z,64.36
2023-03-22T12:59:26.620Z,64.43
2023-03-22T13:02:13.551Z,64.47
2023-03-22T13:04:44.233Z,64.80
2023-03-22T13:07:15.402Z,64.37
2023-03-22T13:09:47.165Z,63.81
2023-03-22T13:12:17.895Z,63.96
2023-03-22T13:14:49.557Z,63.52
2023-03-22T13:17:23.351Z,62.90
2023-03-22T13:20:00.506Z,62.61
2023-03-22T13:22:38.073Z,62.95
2023-03-22T13:25:08.609Z,62.11
2023-03-22T13:27:45.480Z,62.33
2023-03-22T13:30:26.100Z,62.10
2023-03-22T13:32:58.275Z,61.81
2023-03-22T13:35:44.117Z,62.21
2023-03-22T13:38:25.658Z,62.60
2023-03-22T13:41:04.995Z,61.00
2023-03-22T13:43:50.298Z,61.06
2023-03-22T13:46:19.912Z,61.17
2023-03-22T13:48:48.779Z,61.15
2023-03-22T13:51:23.342Z,61.24
2023-03-22T13:54:10.107Z,61.13
2023-03-22T13:56:44.626Z,61.42
2023-03-22T13:59:13.891Z,61.02
2023-03-22T14:01:48.130Z,60.88
2023-03-22T14:04:58.178Z,61.17
2023-03-22T14:07:29.020Z,61.64
2023-03-22T14:10:03.278Z,61.51
2023-03-22T14:12:46.140Z,61.68
2023-03-22T14:15:20.990Z,61.61
2023-03-22T14:18:26.872Z,61.58
2023-03-22T14:20:59.940Z,61.75
